sensor_id;sensor_type;location;lat;lon;timestamp;temperature;humidity
60293;DHT22;52402;52.670;6.750;2023-05-10T00:01:05;13.00;99.90
60293;DHT22;52402;52.670;6.750;2023-05-10T00:03:30;13.00;99.90
60293;DHT22;52402;52.670;6.750;2023-05-10T00:05:56;12.90;99.90
60293;DHT22;52402;52.670;6.750;2023-05-10T00:08:22;12.90;99.90
60293;DHT22;52402;52.670;6.750;2023-05-10T00:10:48;13.00;99.90
60293;DHT22;52402;52.670;6.750;2023-05-10T00:13:14;12.90;99.90
60293;DHT22;52402;52.670;6.750;2023-05-10T00:15:39;12.90;99.90
60293;DHT22;52402;52.670;6.750;2023-05-10T00:18:07;12.90;99.90
60293;DHT22;52402;52.670;6.750;2023-05-10T00:20:33;12.90;99.90
60293;DHT22;52402;52.670;6.750;2023-05-10T00:22:59;13.00;99.90
60293;DHT22;52402;52.670;6.750;2023-05-10T00:25:25;12.90;99.90
60293;DHT22;52402;52.670;6.750;2023-05-10T00:27:51;12.90;99.90
60293;DHT22;52402;52.670;6.750;2023-05-10T00:30:17;12.90;99.90
60293;DHT22;52402;52.670;6.750;2023-05-10T00:32:43;12.90;99.90
60293;DHT22;52402;52.670;6.750;2023-05-10T00:35:08;12.90;99.90
60293;DHT22;52402;52.670;6.750;2023-05-10T00:37:34;12.90;99.90
60293;DHT22;52402;52.670;6.750;2023-05-10T00:40:00;12.90;99.90
60293;DHT22;52402;52.670;6.750;2023-05-10T00:42:25;12.90;99.90
60293;DHT22;52402;52.670;6.750;2023-05-10T00:44:51;12.80;99.90
60293;DHT22;52402;52.670;6.750;2023-05-10T00:47:16;12.90;99.90
60293;DHT22;52402;52.670;6.750;2023-05-10T00:49:43;12.90;99.90
60293;DHT22;52402;52.670;6.750;2023-05-10T00:52:09;12.90;99.90
60293;DHT22;52402;52.670;6.750;2023-05-10T00:54:35;12.90;99.90
60293;DHT22;52402;52.670;6.750;2023-05-10T00:57:02;12.90;99.90
60293;DHT22;52402;52.670;6.750;2023-05-10T00:59:28;12.90;99.90
60293;DHT22;52402;52.670;6.750;2023-05-10T01:01:55;12.90;99.90
60293;DHT22;52402;52.670;6.750;2023-05-10T01:04:21;12.90;99.90
60293;DHT22;52402;52.670;6.750;2023-05-10T01:06:51;12.90;99.90
60293;DHT22;52402;52.670;6.750;2023-05-10T01:09:16;12.80;99.90
60293;DHT22;52402;52.670;6.750;2023-05-10T01:11:43;12.90;99.90
60293;DHT22;52402;52.670;6.750;2023-05-10T01:14:10;12.80;99.90
60293;DHT22;52402;52.670;6.750;2023-05-10T01:16:39;12.80;99.90
60293;DHT22;52402;52.670;6.750;2023-05-10T01:19:25;12.80;99.90
60293;DHT22;52402;52.670;6.750;2023-05-10T01:33:27;12.70;99.90
60293;DHT22;52402;52.670;6.750;2023-05-10T01:36:03;12.70;99.90
60293;DHT22;52402;52.670;6.750;2023-05-10T01:38:47;12.70;99.90
60293;DHT22;52402;52.670;6.750;2023-05-10T01:41:28;12.70;99.90
60293;DHT22;52402;52.670;6.750;2023-05-10T01:46:39;12.60;99.90
60293;DHT22;52402;52.670;6.750;2023-05-10T01:49:09;12.60;99.90
60293;DHT22;52402;52.670;6.750;2023-05-10T01:51:48;12.60;99.90
60293;DHT22;52402;52.670;6.750;2023-05-10T01:54:19;12.60;99.90
60293;DHT22;52402;52.670;6.750;2023-05-10T01:56:52;12.60;99.90
60293;DHT22;52402;52.670;6.750;2023-05-10T01:59:21;12.60;99.90
60293;DHT22;52402;52.670;6.750;2023-05-10T02:01:47;12.60;99.90
60293;DHT22;52402;52.670;6.750;2023-05-10T02:04:16;12.60;99.90
60293;DHT22;52402;52.670;6.750;2023-05-10T02:06:43;12.50;99.90
60293;DHT22;52402;52.670;6.750;2023-05-10T02:09:11;12.50;99.90
60293;DHT22;52402;52.670;6.750;2023-05-10T02:11:39;12.50;99.90
60293;DHT22;52402;52.670;6.750;2023-05-10T02:14:09;12.60;99.90
60293;DHT22;52402;52.670;6.750;2023-05-10T02:16:38;12.60;99.90
60293;DHT22;52402;52.670;6.750;2023-05-10T02:19:05;12.60;99.90
60293;DHT22;52402;52.670;6.750;2023-05-10T02:21:33;12.60;99.90
60293;DHT22;52402;52.670;6.750;2023-05-10T02:24:01;12.60;99.90
60293;DHT22;52402;52.670;6.750;2023-05-10T02:26:33;12.60;99.90
60293;DHT22;52402;52.670;6.750;2023-05-10T02:29:02;12.60;99.90
60293;DHT22;52402;52.670;6.750;2023-05-10T02:31:30;12.60;99.90
60293;DHT22;52402;52.670;6.750;2023-05-10T02:34:05;12.60;99.90
60293;DHT22;52402;52.670;6.750;2023-05-10T02:36:35;12.60;99.90
60293;DHT22;52402;52.670;6.750;2023-05-10T02:39:01;12.60;99.90
60293;DHT22;52402;52.670;6.750;2023-05-10T02:41:28;12.50;99.90
60293;DHT22;52402;52.670;6.750;2023-05-10T02:43:57;12.50;99.90
60293;DHT22;52402;52.670;6.750;2023-05-10T02:46:25;12.50;99.90
60293;DHT22;52402;52.670;6.750;2023-05-10T02:48:51;12.40;99.90
60293;DHT22;52402;52.670;6.750;2023-05-10T02:51:18;12.50;99.90
60293;DHT22;52402;52.670;6.750;2023-05-10T02:53:47;12.50;99.90
60293;DHT22;52402;52.670;6.750;2023-05-10T02:56:22;12.50;99.90
60293;DHT22;52402;52.670;6.750;2023-05-10T02:58:49;12.50;99.90
60293;DHT22;52402;52.670;6.750;2023-05-10T03:01:14;12.60;99.90
60293;DHT22;52402;52.670;6.750;2023-05-10T03:03:41;12.60;99.90
60293;DHT22;52402;52.670;6.750;2023-05-10T03:06:07;12.60;99.90
60293;DHT22;52402;52.670;6.750;2023-05-10T03:08:32;12.60;99.90
60293;DHT22;52402;52.670;6.750;2023-05-10T03:16:45;12.60;99.90
60293;DHT22;52402;52.670;6.750;2023-05-10T03:19:30;12.50;99.90
60293;DHT22;52402;52.670;6.750;2023-05-10T03:21:59;12.60;99.90
60293;DHT22;52402;52.670;6.750;2023-05-10T03:24:30;12.60;99.90
60293;DHT22;52402;52.670;6.750;2023-05-10T03:26:59;12.60;99.90
60293;DHT22;52402;52.670;6.750;2023-05-10T03:29:29;12.60;99.90
60293;DHT22;52402;52.670;6.750;2023-05-10T03:31:58;12.50;99.90
60293;DHT22;52402;52.670;6.750;2023-05-10T03:34:25;12.60;99.90
60293;DHT22;52402;52.670;6.750;2023-05-10T03:36:51;12.50;99.90
60293;DHT22;52402;52.670;6.750;2023-05-10T03:39:17;12.60;99.90
60293;DHT22;52402;52.670;6.750;2023-05-10T03:41:42;12.50;99.90
60293;DHT22;52402;52.670;6.750;2023-05-10T03:44:08;12.50;99.90
60293;DHT22;52402;52.670;6.750;2023-05-10T03:46:34;12.50;99.90
60293;DHT22;52402;52.670;6.750;2023-05-10T03:49:00;12.50;99.90
60293;DHT22;52402;52.670;6.750;2023-05-10T03:51:25;12.50;99.90
60293;DHT22;52402;52.670;6.750;2023-05-10T03:53:56;12.40;99.90
60293;DHT22;52402;52.670;6.750;2023-05-10T03:56:22;12.50;99.90
60293;DHT22;52402;52.670;6.750;2023-05-10T03:58:48;12.40;99.90
60293;DHT22;52402;52.670;6.750;2023-05-10T04:01:13;12.40;99.90
60293;DHT22;52402;52.670;6.750;2023-05-10T04:03:39;12.40;99.90
60293;DHT22;52402;52.670;6.750;2023-05-10T04:06:05;12.40;99.90
60293;DHT22;52402;52.670;6.750;2023-05-10T04:08:33;12.40;99.90
60293;DHT22;52402;52.670;6.750;2023-05-10T04:11:10;12.40;99.90
60293;DHT22;52402;52.670;6.750;2023-05-10T04:13:36;12.40;99.90
60293;DHT22;52402;52.670;6.750;2023-05-10T04:16:02;12.40;99.90
60293;DHT22;52402;52.670;6.750;2023-05-10T04:18:28;12.30;99.90
60293;DHT22;52402;52.670;6.750;2023-05-10T04:20:54;12.30;99.90
60293;DHT22;52402;52.670;6.750;2023-05-10T04:23:20;12.30;99.90
60293;DHT22;52402;52.670;6.750;2023-05-10T04:25:45;12.30;99.90
60293;DHT22;52402;52.670;6.750;2023-05-10T04:28:11;12.30;99.90
60293;DHT22;52402;52.670;6.750;2023-05-10T04:30:37;12.40;99.90
60293;DHT22;52402;52.670;6.750;2023-05-10T04:33:02;12.30;99.90
60293;DHT22;52402;52.670;6.750;2023-05-10T04:35:31;12.30;99.90
60293;DHT22;52402;52.670;6.750;2023-05-10T04:37:56;12.30;99.90
60293;DHT22;52402;52.670;6.750;2023-05-10T04:40:22;12.40;99.90
60293;DHT22;52402;52.670;6.750;2023-05-10T04:42:48;12.30;99.90
60293;DHT22;52402;52.670;6.750;2023-05-10T04:45:13;12.40;99.90
60293;DHT22;52402;52.670;6.750;2023-05-10T04:47:42;12.40;99.90
60293;DHT22;52402;52.670;6.750;2023-05-10T04:50:08;12.40;99.90
60293;DHT22;52402;52.670;6.750;2023-05-10T04:52:34;12.30;99.90
60293;DHT22;52402;52.670;6.750;2023-05-10T04:54:59;12.30;99.90
60293;DHT22;52402;52.670;6.750;2023-05-10T04:57:25;12.40;99.90
60293;DHT22;52402;52.670;6.750;2023-05-10T04:59:51;12.30;99.90
60293;DHT22;52402;52.670;6.750;2023-05-10T05:02:17;12.40;99.90
60293;DHT22;52402;52.670;6.750;2023-05-10T05:04:43;12.40;99.90
60293;DHT22;52402;52.670;6.750;2023-05-10T05:07:08;12.40;99.90
60293;DHT22;52402;52.670;6.750;2023-05-10T05:09:34;12.40;99.90
60293;DHT22;52402;52.670;6.750;2023-05-10T05:12:00;12.40;99.90
60293;DHT22;52402;52.670;6.750;2023-05-10T05:14:26;12.40;99.90
60293;DHT22;52402;52.670;6.750;2023-05-10T05:16:52;12.50;99.90
60293;DHT22;52402;52.670;6.750;2023-05-10T05:19:18;12.40;99.90
60293;DHT22;52402;52.670;6.750;2023-05-10T05:21:43;12.50;99.90
60293;DHT22;52402;52.670;6.750;2023-05-10T05:24:09;12.50;99.90
60293;DHT22;52402;52.670;6.750;2023-05-10T05:26:36;12.60;99.90
60293;DHT22;52402;52.670;6.750;2023-05-10T05:29:02;12.60;99.90
60293;DHT22;52402;52.670;6.750;2023-05-10T05:31:28;12.60;99.90
60293;DHT22;52402;52.670;6.750;2023-05-10T05:33:54;12.60;99.90
60293;DHT22;52402;52.670;6.750;2023-05-10T05:36:21;12.70;99.90
60293;DHT22;52402;52.670;6.750;2023-05-10T05:38:47;12.70;99.90
60293;DHT22;52402;52.670;6.750;2023-05-10T05:41:13;12.60;99.90
60293;DHT22;52402;52.670;6.750;2023-05-10T05:43:38;12.70;99.90
60293;DHT22;52402;52.670;6.750;2023-05-10T05:46:04;12.70;99.90
60293;DHT22;52402;52.670;6.750;2023-05-10T05:48:30;12.70;99.90
60293;DHT22;52402;52.670;6.750;2023-05-10T05:50:57;12.80;99.90
60293;DHT22;52402;52.670;6.750;2023-05-10T05:53:26;12.80;99.90
60293;DHT22;52402;52.670;6.750;2023-05-10T05:55:56;12.80;99.90
60293;DHT22;52402;52.670;6.750;2023-05-10T05:58:25;12.80;99.90
60293;DHT22;52402;52.670;6.750;2023-05-10T06:00:51;12.80;99.90
60293;DHT22;52402;52.670;6.750;2023-05-10T06:03:18;12.80;99.90
60293;DHT22;52402;52.670;6.750;2023-05-10T06:05:44;12.80;99.90
60293;DHT22;52402;52.670;6.750;2023-05-10T06:08:10;12.90;99.90
60293;DHT22;52402;52.670;6.750;2023-05-10T06:10:36;12.90;99.90
60293;DHT22;52402;52.670;6.750;2023-05-10T06:13:02;12.90;99.90
60293;DHT22;52402;52.670;6.750;2023-05-10T06:15:27;12.90;99.90
60293;DHT22;52402;52.670;6.750;2023-05-10T06:17:53;12.90;99.90
60293;DHT22;52402;52.670;6.750;2023-05-10T06:20:20;12.90;99.90
60293;DHT22;52402;52.670;6.750;2023-05-10T06:22:46;13.00;99.90
60293;DHT22;52402;52.670;6.750;2023-05-10T06:25:11;13.10;99.90
60293;DHT22;52402;52.670;6.750;2023-05-10T06:31:40;13.30;99.90
60293;DHT22;52402;52.670;6.750;2023-05-10T06:34:06;13.30;99.90
60293;DHT22;52402;52.670;6.750;2023-05-10T06:36:33;13.40;99.90
60293;DHT22;52402;52.670;6.750;2023-05-10T06:38:59;13.50;99.90
60293;DHT22;52402;52.670;6.750;2023-05-10T06:41:24;13.60;99.90
60293;DHT22;52402;52.670;6.750;2023-05-10T06:43:50;13.60;99.90
60293;DHT22;52402;52.670;6.750;2023-05-10T06:46:16;13.70;99.90
60293;DHT22;52402;52.670;6.750;2023-05-10T06:48:42;13.80;99.90
60293;DHT22;52402;52.670;6.750;2023-05-10T06:51:07;13.80;99.90
60293;DHT22;52402;52.670;6.750;2023-05-10T06:53:33;13.90;99.90
60293;DHT22;52402;52.670;6.750;2023-05-10T06:55:59;14.00;99.90
60293;DHT22;52402;52.670;6.750;2023-05-10T06:58:25;14.10;99.90
60293;DHT22;52402;52.670;6.750;2023-05-10T07:00:50;14.10;99.90
60293;DHT22;52402;52.670;6.750;2023-05-10T07:03:16;14.10;99.90
60293;DHT22;52402;52.670;6.750;2023-05-10T07:05:43;14.10;99.90
60293;DHT22;52402;52.670;6.750;2023-05-10T07:08:10;14.10;99.90
60293;DHT22;52402;52.670;6.750;2023-05-10T07:10:35;14.20;99.90
60293;DHT22;52402;52.670;6.750;2023-05-10T07:13:01;14.10;99.90
60293;DHT22;52402;52.670;6.750;2023-05-10T07:15:27;14.10;99.90
60293;DHT22;52402;52.670;6.750;2023-05-10T07:17:53;14.10;99.90
60293;DHT22;52402;52.670;6.750;2023-05-10T07:20:19;14.10;99.90
60293;DHT22;52402;52.670;6.750;2023-05-10T07:22:45;14.10;99.90
60293;DHT22;52402;52.670;6.750;2023-05-10T07:25:10;14.10;99.90
60293;DHT22;52402;52.670;6.750;2023-05-10T07:27:36;14.20;99.90
60293;DHT22;52402;52.670;6.750;2023-05-10T07:30:02;14.20;99.90
60293;DHT22;52402;52.670;6.750;2023-05-10T07:32:28;14.30;99.90
60293;DHT22;52402;52.670;6.750;2023-05-10T07:34:53;14.30;99.90
60293;DHT22;52402;52.670;6.750;2023-05-10T07:37:19;14.40;99.90
60293;DHT22;52402;52.670;6.750;2023-05-10T07:39:45;14.30;99.90
60293;DHT22;52402;52.670;6.750;2023-05-10T07:42:11;14.30;99.90
60293;DHT22;52402;52.670;6.750;2023-05-10T07:44:36;14.40;99.90
60293;DHT22;52402;52.670;6.750;2023-05-10T07:47:02;14.50;99.90
60293;DHT22;52402;52.670;6.750;2023-05-10T07:49:27;14.40;99.90
60293;DHT22;52402;52.670;6.750;2023-05-10T07:51:53;14.40;99.90
60293;DHT22;52402;52.670;6.750;2023-05-10T07:54:19;14.40;99.90
60293;DHT22;52402;52.670;6.750;2023-05-10T07:56:44;14.40;99.90
60293;DHT22;52402;52.670;6.750;2023-05-10T07:59:21;14.40;99.90
60293;DHT22;52402;52.670;6.750;2023-05-10T08:01:47;14.40;99.90
60293;DHT22;52402;52.670;6.750;2023-05-10T08:04:12;14.50;99.90
60293;DHT22;52402;52.670;6.750;2023-05-10T08:06:39;14.60;99.90
60293;DHT22;52402;52.670;6.750;2023-05-10T08:09:05;14.70;99.90
60293;DHT22;52402;52.670;6.750;2023-05-10T08:11:30;14.80;99.90
60293;DHT22;52402;52.670;6.750;2023-05-10T08:13:56;14.90;99.90
60293;DHT22;52402;52.670;6.750;2023-05-10T08:16:21;14.90;99.90
60293;DHT22;52402;52.670;6.750;2023-05-10T08:18:47;14.90;99.90
60293;DHT22;52402;52.670;6.750;2023-05-10T08:21:13;14.90;99.90
60293;DHT22;52402;52.670;6.750;2023-05-10T08:23:39;15.00;99.90
60293;DHT22;52402;52.670;6.750;2023-05-10T08:26:06;15.10;99.90
60293;DHT22;52402;52.670;6.750;2023-05-10T08:28:32;15.20;99.90
60293;DHT22;52402;52.670;6.750;2023-05-10T08:30:57;15.20;99.90
60293;DHT22;52402;52.670;6.750;2023-05-10T08:33:23;15.10;99.90
60293;DHT22;52402;52.670;6.750;2023-05-10T08:35:49;15.10;99.90
60293;DHT22;52402;52.670;6.750;2023-05-10T08:38:14;15.20;99.90
60293;DHT22;52402;52.670;6.750;2023-05-10T08:40:44;15.30;99.90
60293;DHT22;52402;52.670;6.750;2023-05-10T08:43:13;15.50;99.90
60293;DHT22;52402;52.670;6.750;2023-05-10T08:45:43;15.40;99.90
60293;DHT22;52402;52.670;6.750;2023-05-10T08:48:11;15.40;99.90
60293;DHT22;52402;52.670;6.750;2023-05-10T08:50:39;15.40;99.90
60293;DHT22;52402;52.670;6.750;2023-05-10T08:53:09;15.30;99.90
60293;DHT22;52402;52.670;6.750;2023-05-10T08:55:35;15.30;99.90
60293;DHT22;52402;52.670;6.750;2023-05-10T08:58:06;15.50;99.90
60293;DHT22;52402;52.670;6.750;2023-05-10T09:00:32;15.60;99.90
60293;DHT22;52402;52.670;6.750;2023-05-10T09:02:59;15.50;99.90
60293;DHT22;52402;52.670;6.750;2023-05-10T09:05:25;15.60;99.90
60293;DHT22;52402;52.670;6.750;2023-05-10T09:07:51;15.60;99.90
60293;DHT22;52402;52.670;6.750;2023-05-10T09:10:17;15.60;99.90
60293;DHT22;52402;52.670;6.750;2023-05-10T09:12:44;15.70;99.90
60293;DHT22;52402;52.670;6.750;2023-05-10T09:15:14;15.70;99.90
60293;DHT22;52402;52.670;6.750;2023-05-10T09:17:41;15.70;99.90
60293;DHT22;52402;52.670;6.750;2023-05-10T09:20:07;15.60;99.90
60293;DHT22;52402;52.670;6.750;2023-05-10T09:22:34;15.40;99.90
60293;DHT22;52402;52.670;6.750;2023-05-10T09:25:07;15.50;99.90
60293;DHT22;52402;52.670;6.750;2023-05-10T09:27:34;15.50;99.90
60293;DHT22;52402;52.670;6.750;2023-05-10T09:30:00;15.50;99.90
60293;DHT22;52402;52.670;6.750;2023-05-10T09:35:13;15.50;99.90
60293;DHT22;52402;52.670;6.750;2023-05-10T09:37:40;15.60;99.90
60293;DHT22;52402;52.670;6.750;2023-05-10T09:40:13;15.60;99.90
60293;DHT22;52402;52.670;6.750;2023-05-10T09:42:41;15.60;99.90
60293;DHT22;52402;52.670;6.750;2023-05-10T09:45:07;15.50;99.90
60293;DHT22;52402;52.670;6.750;2023-05-10T09:47:37;15.40;99.90
60293;DHT22;52402;52.670;6.750;2023-05-10T09:50:03;15.40;99.90
60293;DHT22;52402;52.670;6.750;2023-05-10T09:52:52;15.50;99.90
60293;DHT22;52402;52.670;6.750;2023-05-10T09:55:23;15.70;99.90
60293;DHT22;52402;52.670;6.750;2023-05-10T09:57:58;15.70;99.90
60293;DHT22;52402;52.670;6.750;2023-05-10T10:00:24;15.70;99.90
60293;DHT22;52402;52.670;6.750;2023-05-10T10:02:58;15.70;99.90
60293;DHT22;52402;52.670;6.750;2023-05-10T10:05:34;15.70;99.90
60293;DHT22;52402;52.670;6.750;2023-05-10T10:08:03;15.70;99.90
60293;DHT22;52402;52.670;6.750;2023-05-10T10:10:31;15.80;99.90
60293;DHT22;52402;52.670;6.750;2023-05-10T10:12:57;15.80;99.90
60293;DHT22;52402;52.670;6.750;2023-05-10T10:15:24;15.70;99.90
60293;DHT22;52402;52.670;6.750;2023-05-10T10:17:51;15.70;99.90
60293;DHT22;52402;52.670;6.750;2023-05-10T10:20:18;15.70;99.90
60293;DHT22;52402;52.670;6.750;2023-05-10T10:22:45;15.60;99.90
60293;DHT22;52402;52.670;6.750;2023-05-10T10:25:12;15.70;99.90
60293;DHT22;52402;52.670;6.750;2023-05-10T10:27:47;15.70;99.90
60293;DHT22;52402;52.670;6.750;2023-05-10T10:30:42;15.80;99.90
60293;DHT22;52402;52.670;6.750;2023-05-10T10:33:36;15.80;99.90
60293;DHT22;52402;52.670;6.750;2023-05-10T10:36:04;15.90;99.90
60293;DHT22;52402;52.670;6.750;2023-05-10T10:41:36;16.00;99.90
60293;DHT22;52402;52.670;6.750;2023-05-10T10:47:01;16.20;99.90
60293;DHT22;52402;52.670;6.750;2023-05-10T10:49:31;16.30;99.90
60293;DHT22;52402;52.670;6.750;2023-05-10T10:52:25;16.40;99.90
60293;DHT22;52402;52.670;6.750;2023-05-10T10:55:00;16.10;99.90
60293;DHT22;52402;52.670;6.750;2023-05-10T10:57:27;16.20;99.90
60293;DHT22;52402;52.670;6.750;2023-05-10T11:02:58;16.20;99.90
60293;DHT22;52402;52.670;6.750;2023-05-10T11:07:55;16.10;99.90
60293;DHT22;52402;52.670;6.750;2023-05-10T11:10:25;16.10;99.90
60293;DHT22;52402;52.670;6.750;2023-05-10T11:13:01;16.10;99.90
60293;DHT22;52402;52.670;6.750;2023-05-10T11:15:32;16.20;99.90
60293;DHT22;52402;52.670;6.750;2023-05-10T11:17:58;16.10;99.90
60293;DHT22;52402;52.670;6.750;2023-05-10T11:20:28;16.10;99.90
60293;DHT22;52402;52.670;6.750;2023-05-10T11:23:11;16.10;99.90
60293;DHT22;52402;52.670;6.750;2023-05-10T11:25:42;16.10;99.90
60293;DHT22;52402;52.670;6.750;2023-05-10T11:28:10;16.10;99.90
60293;DHT22;52402;52.670;6.750;2023-05-10T11:30:40;15.90;99.90
60293;DHT22;52402;52.670;6.750;2023-05-10T11:33:07;15.70;99.90
60293;DHT22;52402;52.670;6.750;2023-05-10T11:35:40;15.80;99.90
60293;DHT22;52402;52.670;6.750;2023-05-10T11:38:11;15.90;99.90
60293;DHT22;52402;52.670;6.750;2023-05-10T11:40:37;16.00;99.90
60293;DHT22;52402;52.670;6.750;2023-05-10T11:43:15;16.10;99.90
60293;DHT22;52402;52.670;6.750;2023-05-10T11:45:41;16.20;99.90
60293;DHT22;52402;52.670;6.750;2023-05-10T11:48:07;16.30;99.90
60293;DHT22;52402;52.670;6.750;2023-05-10T11:50:33;16.30;99.90
60293;DHT22;52402;52.670;6.750;2023-05-10T11:52:59;16.40;99.90
60293;DHT22;52402;52.670;6.750;2023-05-10T11:55:25;16.40;99.90
60293;DHT22;52402;52.670;6.750;2023-05-10T11:57:54;16.30;99.90
60293;DHT22;52402;52.670;6.750;2023-05-10T12:00:20;16.30;99.90
60293;DHT22;52402;52.670;6.750;2023-05-10T12:02:47;16.30;99.90
60293;DHT22;52402;52.670;6.750;2023-05-10T12:05:13;16.10;99.90
60293;DHT22;52402;52.670;6.750;2023-05-10T12:07:39;16.30;99.90
60293;DHT22;52402;52.670;6.750;2023-05-10T12:10:12;16.30;99.90
60293;DHT22;52402;52.670;6.750;2023-05-10T12:12:44;16.30;99.90
60293;DHT22;52402;52.670;6.750;2023-05-10T12:17:44;16.30;99.90
60293;DHT22;52402;52.670;6.750;2023-05-10T12:20:21;16.30;99.90
60293;DHT22;52402;52.670;6.750;2023-05-10T12:25:22;16.30;99.90
60293;DHT22;52402;52.670;6.750;2023-05-10T12:27:53;16.20;99.90
60293;DHT22;52402;52.670;6.750;2023-05-10T12:30:24;16.10;99.90
60293;DHT22;52402;52.670;6.750;2023-05-10T12:32:50;16.00;99.90
60293;DHT22;52402;52.670;6.750;2023-05-10T12:35:16;15.80;99.90
60293;DHT22;52402;52.670;6.750;2023-05-10T12:37:43;15.90;99.90
60293;DHT22;52402;52.670;6.750;2023-05-10T12:40:10;15.70;99.90
60293;DHT22;52402;52.670;6.750;2023-05-10T12:42:37;15.70;99.90
60293;DHT22;52402;52.670;6.750;2023-05-10T12:45:04;15.70;99.90
60293;DHT22;52402;52.670;6.750;2023-05-10T12:47:33;15.70;99.90
60293;DHT22;52402;52.670;6.750;2023-05-10T12:50:00;15.70;99.90
60293;DHT22;52402;52.670;6.750;2023-05-10T12:52:27;15.70;99.90
60293;DHT22;52402;52.670;6.750;2023-05-10T12:54:53;15.70;99.90
60293;DHT22;52402;52.670;6.750;2023-05-10T12:57:22;15.70;99.90
60293;DHT22;52402;52.670;6.750;2023-05-10T12:59:48;15.70;99.90
60293;DHT22;52402;52.670;6.750;2023-05-10T13:02:15;15.70;99.90
60293;DHT22;52402;52.670;6.750;2023-05-10T13:04:43;15.60;99.90
60293;DHT22;52402;52.670;6.750;2023-05-10T13:07:10;15.60;99.90
60293;DHT22;52402;52.670;6.750;2023-05-10T13:09:35;15.60;99.90
60293;DHT22;52402;52.670;6.750;2023-05-10T13:12:02;15.50;99.90
60293;DHT22;52402;52.670;6.750;2023-05-10T13:14:29;15.60;99.90
60293;DHT22;52402;52.670;6.750;2023-05-10T13:16:54;15.50;99.90
60293;DHT22;52402;52.670;6.750;2023-05-10T13:19:20;15.60;99.90
60293;DHT22;52402;52.670;6.750;2023-05-10T13:21:46;15.60;99.90
60293;DHT22;52402;52.670;6.750;2023-05-10T13:24:12;15.60;99.90
60293;DHT22;52402;52.670;6.750;2023-05-10T13:26:43;15.70;99.90
60293;DHT22;52402;52.670;6.750;2023-05-10T13:29:09;15.70;99.90
60293;DHT22;52402;52.670;6.750;2023-05-10T13:31:35;15.70;99.90
60293;DHT22;52402;52.670;6.750;2023-05-10T13:34:01;15.80;99.90
60293;DHT22;52402;52.670;6.750;2023-05-10T13:36:28;15.80;99.90
60293;DHT22;52402;52.670;6.750;2023-05-10T13:38:54;16.00;99.90
60293;DHT22;52402;52.670;6.750;2023-05-10T13:41:19;15.90;99.90
60293;DHT22;52402;52.670;6.750;2023-05-10T13:43:45;16.00;99.90
60293;DHT22;52402;52.670;6.750;2023-05-10T13:46:11;16.00;99.90
60293;DHT22;52402;52.670;6.750;2023-05-10T13:48:37;16.00;99.90
60293;DHT22;52402;52.670;6.750;2023-05-10T13:51:03;16.00;99.90
60293;DHT22;52402;52.670;6.750;2023-05-10T13:53:29;16.00;99.90
60293;DHT22;52402;52.670;6.750;2023-05-10T13:55:55;16.00;99.90
60293;DHT22;52402;52.670;6.750;2023-05-10T13:58:21;16.10;99.90
60293;DHT22;52402;52.670;6.750;2023-05-10T14:00:46;16.20;99.90
60293;DHT22;52402;52.670;6.750;2023-05-10T14:03:13;16.20;99.90
60293;DHT22;52402;52.670;6.750;2023-05-10T14:05:39;16.30;99.90
60293;DHT22;52402;52.670;6.750;2023-05-10T14:08:05;16.20;99.90
60293;DHT22;52402;52.670;6.750;2023-05-10T14:10:31;16.40;99.90
60293;DHT22;52402;52.670;6.750;2023-05-10T14:12:57;16.50;99.90
60293;DHT22;52402;52.670;6.750;2023-05-10T14:15:22;16.70;99.90
60293;DHT22;52402;52.670;6.750;2023-05-10T14:17:49;16.80;99.90
60293;DHT22;52402;52.670;6.750;2023-05-10T14:20:15;16.90;99.90
60293;DHT22;52402;52.670;6.750;2023-05-10T14:22:41;16.90;99.90
60293;DHT22;52402;52.670;6.750;2023-05-10T14:25:07;16.90;99.90
60293;DHT22;52402;52.670;6.750;2023-05-10T14:27:34;16.90;99.90
60293;DHT22;52402;52.670;6.750;2023-05-10T14:29:59;16.80;99.90
60293;DHT22;52402;52.670;6.750;2023-05-10T14:32:25;16.50;99.90
60293;DHT22;52402;52.670;6.750;2023-05-10T14:34:52;16.40;99.90
60293;DHT22;52402;52.670;6.750;2023-05-10T14:37:19;16.30;99.90
60293;DHT22;52402;52.670;6.750;2023-05-10T14:39:46;16.20;99.90
60293;DHT22;52402;52.670;6.750;2023-05-10T14:42:12;16.20;99.90
60293;DHT22;52402;52.670;6.750;2023-05-10T14:44:38;16.20;99.90
60293;DHT22;52402;52.670;6.750;2023-05-10T14:47:03;16.10;99.90
60293;DHT22;52402;52.670;6.750;2023-05-10T14:49:35;15.80;99.90
60293;DHT22;52402;52.670;6.750;2023-05-10T14:52:01;15.70;99.90
60293;DHT22;52402;52.670;6.750;2023-05-10T14:54:26;15.50;99.90
60293;DHT22;52402;52.670;6.750;2023-05-10T14:56:52;15.40;99.90
60293;DHT22;52402;52.670;6.750;2023-05-10T14:59:19;15.50;99.90
60293;DHT22;52402;52.670;6.750;2023-05-10T15:01:48;15.50;99.90
60293;DHT22;52402;52.670;6.750;2023-05-10T15:04:14;15.50;99.90
60293;DHT22;52402;52.670;6.750;2023-05-10T15:06:41;15.50;99.90
60293;DHT22;52402;52.670;6.750;2023-05-10T15:09:07;15.50;99.90
60293;DHT22;52402;52.670;6.750;2023-05-10T15:11:33;15.40;99.90
60293;DHT22;52402;52.670;6.750;2023-05-10T15:13:59;15.50;99.90
60293;DHT22;52402;52.670;6.750;2023-05-10T15:16:25;15.50;99.90
60293;DHT22;52402;52.670;6.750;2023-05-10T15:18:50;15.50;99.90
60293;DHT22;52402;52.670;6.750;2023-05-10T15:21:17;15.60;99.90
60293;DHT22;52402;52.670;6.750;2023-05-10T15:23:45;15.60;99.90
60293;DHT22;52402;52.670;6.750;2023-05-10T15:26:10;15.60;99.90
60293;DHT22;52402;52.670;6.750;2023-05-10T15:28:36;15.60;99.90
60293;DHT22;52402;52.670;6.750;2023-05-10T15:31:02;15.50;99.90
60293;DHT22;52402;52.670;6.750;2023-05-10T15:33:28;15.50;99.90
60293;DHT22;52402;52.670;6.750;2023-05-10T15:35:54;15.50;99.90
60293;DHT22;52402;52.670;6.750;2023-05-10T15:38:20;15.60;99.90
60293;DHT22;52402;52.670;6.750;2023-05-10T15:40:45;15.60;99.90
60293;DHT22;52402;52.670;6.750;2023-05-10T15:43:11;15.50;99.90
60293;DHT22;52402;52.670;6.750;2023-05-10T15:45:37;15.50;99.90
60293;DHT22;52402;52.670;6.750;2023-05-10T15:48:03;15.60;99.90
60293;DHT22;52402;52.670;6.750;2023-05-10T15:50:29;15.60;99.90
60293;DHT22;52402;52.670;6.750;2023-05-10T15:52:55;15.50;99.90
60293;DHT22;52402;52.670;6.750;2023-05-10T15:55:20;15.50;99.90
60293;DHT22;52402;52.670;6.750;2023-05-10T15:57:50;15.30;99.90
60293;DHT22;52402;52.670;6.750;2023-05-10T16:00:16;15.30;99.90
60293;DHT22;52402;52.670;6.750;2023-05-10T16:02:42;15.30;99.90
60293;DHT22;52402;52.670;6.750;2023-05-10T16:05:08;15.40;99.90
60293;DHT22;52402;52.670;6.750;2023-05-10T16:07:34;15.40;99.90
60293;DHT22;52402;52.670;6.750;2023-05-10T16:10:00;15.30;99.90
60293;DHT22;52402;52.670;6.750;2023-05-10T16:12:29;15.30;99.90
60293;DHT22;52402;52.670;6.750;2023-05-10T16:14:55;15.30;99.90